Time;durP1;ratioP1;P1;durP2;ratioP2;P2;SDS_P1;SDS_P2;PMS_P1;PMS_P2;Temp;Humidity;BMP_temperature;BMP_pressure;BME280_temperature;BME280_humidity;BME280_pressure;Samples;Min_cycle;Max_cycle;Signal;HPM_P1;HPM_P2
2022/01/15 00:00:30;;;;;;;;;;;4.20;91.90;;;;;;5085392;28;19911;-61
2022/01/15 00:02:55;;;;;;;;;;;4.20;91.90;;;;;;5066891;28;20398;-60
2022/01/15 00:05:21;;;;;;;;;;;4.20;91.90;;;;;;5087141;28;19916;-61
2022/01/15 00:07:48;;;;;;;;;;;4.20;91.90;;;;;;5088562;28;20398;-61
2022/01/15 00:10:17;;;;;;;;;;;4.20;91.90;;;;;;5085362;28;20359;-60
2022/01/15 00:12:42;;;;;;;;;;;4.20;91.90;;;;;;5088184;28;19912;-61
2022/01/15 00:15:09;;;;;;;;;;;4.10;91.90;;;;;;5069005;28;19908;-60
2022/01/15 00:17:48;;;;;;;;;;;4.10;92.10;;;;;;5104615;28;19926;-60
2022/01/15 00:20:16;;;;;;;;;;;4.10;91.80;;;;;;5071747;28;19908;-60
2022/01/15 00:22:42;;;;;;;;;;;4.10;91.90;;;;;;5069748;28;19921;-60
2022/01/15 00:25:07;;;;;;;;;;;4.10;91.80;;;;;;5068930;28;19915;-60
2022/01/15 00:27:33;;;;;;;;;;;4.10;91.90;;;;;;5069161;28;19923;-60
2022/01/15 00:29:58;;;;;;;;;;;4.10;91.90;;;;;;5067121;28;19911;-60
2022/01/15 00:32:24;;;;;;;;;;;4.10;91.90;;;;;;5102878;28;19955;-60
2022/01/15 00:34:49;;;;;;;;;;;4.10;91.90;;;;;;5069872;28;20293;-61
2022/01/15 00:37:15;;;;;;;;;;;4.10;91.90;;;;;;5070675;28;19973;-60
2022/01/15 00:39:40;;;;;;;;;;;4.10;91.90;;;;;;5086219;28;19939;-60
2022/01/15 00:42:08;;;;;;;;;;;4.00;91.90;;;;;;5086659;28;19916;-61
2022/01/15 00:44:34;;;;;;;;;;;4.00;91.90;;;;;;5068020;28;19961;-60
2022/01/15 00:47:00;;;;;;;;;;;4.00;91.90;;;;;;5070394;28;19959;-61
2022/01/15 00:49:25;;;;;;;;;;;4.00;91.90;;;;;;5069797;28;19951;-60
2022/01/15 00:51:51;;;;;;;;;;;4.00;91.90;;;;;;5083865;28;19939;-60
2022/01/15 00:54:16;;;;;;;;;;;4.00;91.90;;;;;;5084266;28;20402;-60
2022/01/15 00:56:41;;;;;;;;;;;4.00;92.20;;;;;;5100663;28;19955;-61
2022/01/15 00:59:07;;;;;;;;;;;4.00;91.90;;;;;;5086432;28;19923;-60
2022/01/15 01:01:34;;;;;;;;;;;3.90;91.90;;;;;;5084648;28;19923;-60
2022/01/15 01:03:59;;;;;;;;;;;3.90;91.90;;;;;;5086885;28;20010;-61
2022/01/15 01:06:25;;;;;;;;;;;3.90;91.90;;;;;;5102536;28;20019;-60
2022/01/15 01:08:50;;;;;;;;;;;3.90;91.90;;;;;;5085245;28;19911;-60
2022/01/15 01:11:22;;;;;;;;;;;3.90;91.90;;;;;;5084977;28;20329;-60
2022/01/15 01:22:53;;;;;;;;;;;3.90;91.90;;;;;;5085680;28;20423;-60
2022/01/15 01:24:28;;;;;;;;;;;3.90;91.90;;;;;;5087735;28;20375;-60
2022/01/15 01:27:43;;;;;;;;;;;3.90;92.00;;;;;;5068474;28;20378;-60
2022/01/15 01:30:21;;;;;;;;;;;3.80;91.90;;;;;;5076846;28;19919;-60
2022/01/15 01:32:50;;;;;;;;;;;3.90;92.00;;;;;;5101911;28;20072;-60
2022/01/15 01:35:30;;;;;;;;;;;3.80;92.00;;;;;;5069190;28;20455;-60
2022/01/15 01:37:59;;;;;;;;;;;4.10;92.10;;;;;;5072604;28;20003;-61
2022/01/15 01:40:36;;;;;;;;;;;3.80;92.00;;;;;;5084581;28;20486;-60
2022/01/15 01:43:09;;;;;;;;;;;3.80;92.00;;;;;;5088231;28;19927;-61
2022/01/15 01:45:35;;;;;;;;;;;3.80;92.00;;;;;;5085294;28;19916;-61
2022/01/15 01:48:00;;;;;;;;;;;3.80;92.00;;;;;;5085057;28;19922;-60
2022/01/15 01:50:26;;;;;;;;;;;3.70;92.00;;;;;;5065711;28;19918;-60
2022/01/15 01:52:53;;;;;;;;;;;3.80;92.00;;;;;;5085127;28;19912;-60
2022/01/15 01:55:19;;;;;;;;;;;3.80;92.00;;;;;;5068989;28;19914;-62
2022/01/15 01:57:45;;;;;;;;;;;3.80;92.00;;;;;;5069524;28;19911;-60
2022/01/15 02:00:11;;;;;;;;;;;3.70;92.00;;;;;;5084628;28;20457;-60
2022/01/15 02:02:37;;;;;;;;;;;3.70;92.00;;;;;;5083557;28;19935;-60
2022/01/15 02:05:02;;;;;;;;;;;3.70;92.10;;;;;;5101639;28;19908;-60
2022/01/15 02:07:28;;;;;;;;;;;3.80;92.20;;;;;;5086502;28;19916;-60
2022/01/15 02:09:54;;;;;;;;;;;3.70;92.20;;;;;;5082512;28;20018;-60
2022/01/15 02:12:19;;;;;;;;;;;3.70;92.20;;;;;;5084606;28;19984;-60
2022/01/15 02:14:45;;;;;;;;;;;3.70;92.20;;;;;;5100345;28;19923;-60
2022/01/15 02:17:12;;;;;;;;;;;3.80;92.30;;;;;;5085320;28;19918;-60
2022/01/15 02:19:46;;;;;;;;;;;3.70;92.30;;;;;;5084723;28;19919;-60
2022/01/15 02:24:55;;;;;;;;;;;3.70;92.40;;;;;;5086712;28;19923;-61
2022/01/15 02:27:21;;;;;;;;;;;3.70;92.40;;;;;;5066601;28;19920;-60
2022/01/15 02:29:46;;;;;;;;;;;3.70;92.40;;;;;;5084842;28;20009;-60
2022/01/15 02:32:12;;;;;;;;;;;3.70;92.50;;;;;;5102571;28;20318;-61
2022/01/15 02:34:37;;;;;;;;;;;3.70;92.50;;;;;;5085033;28;19912;-60
2022/01/15 02:37:03;;;;;;;;;;;3.70;92.50;;;;;;5068352;28;19920;-60
2022/01/15 02:39:28;;;;;;;;;;;3.70;92.50;;;;;;5066773;28;20051;-61
2022/01/15 02:41:53;;;;;;;;;;;3.70;92.50;;;;;;5100371;28;20287;-61
2022/01/15 02:44:20;;;;;;;;;;;3.70;92.50;;;;;;5102286;28;19907;-61
2022/01/15 02:49:14;;;;;;;;;;;3.60;92.40;;;;;;5102126;28;20299;-60
2022/01/15 02:51:39;;;;;;;;;;;3.60;92.40;;;;;;5081687;28;19912;-60
2022/01/15 02:54:05;;;;;;;;;;;3.60;92.50;;;;;;5067825;28;20366;-60
2022/01/15 02:56:40;;;;;;;;;;;3.60;92.50;;;;;;5068579;28;19908;-61
2022/01/15 02:59:06;;;;;;;;;;;3.60;92.40;;;;;;5072771;28;19912;-61
2022/01/15 03:01:32;;;;;;;;;;;3.60;92.40;;;;;;5070942;28;19926;-61
2022/01/15 03:03:57;;;;;;;;;;;3.60;92.40;;;;;;5088857;28;19924;-60
2022/01/15 03:06:23;;;;;;;;;;;3.60;92.40;;;;;;5088431;28;19908;-60
2022/01/15 03:08:49;;;;;;;;;;;3.60;92.40;;;;;;5087329;28;19955;-60
2022/01/15 03:11:14;;;;;;;;;;;3.70;92.40;;;;;;5104690;28;20361;-60
2022/01/15 03:13:40;;;;;;;;;;;3.60;92.40;;;;;;5089285;28;19912;-60
2022/01/15 03:16:09;;;;;;;;;;;3.50;92.30;;;;;;5071582;28;19916;-60
2022/01/15 03:18:34;;;;;;;;;;;3.50;92.30;;;;;;5087932;28;20160;-60
2022/01/15 03:21:00;;;;;;;;;;;3.60;92.40;;;;;;5085363;28;20002;-60
2022/01/15 03:23:25;;;;;;;;;;;3.50;92.40;;;;;;5072052;28;19968;-61
2022/01/15 03:25:50;;;;;;;;;;;3.50;92.30;;;;;;5105351;28;20099;-61
2022/01/15 03:28:16;;;;;;;;;;;3.50;92.50;;;;;;5072351;28;20391;-60
2022/01/15 03:30:41;;;;;;;;;;;3.40;92.30;;;;;;5069230;28;19956;-60
2022/01/15 03:33:07;;;;;;;;;;;3.70;92.40;;;;;;5104091;28;19920;-61
2022/01/15 03:35:33;;;;;;;;;;;3.50;92.40;;;;;;5087136;28;20347;-60
2022/01/15 03:37:58;;;;;;;;;;;3.50;92.30;;;;;;5104932;28;19916;-60
2022/01/15 03:40:23;;;;;;;;;;;3.50;92.30;;;;;;5105281;28;19967;-60
2022/01/15 03:42:49;;;;;;;;;;;3.40;92.30;;;;;;5088983;28;19908;-60
2022/01/15 03:45:14;;;;;;;;;;;3.40;92.30;;;;;;5069792;28;20007;-60
2022/01/15 03:47:40;;;;;;;;;;;3.40;92.30;;;;;;5071450;28;20371;-60
2022/01/15 03:50:06;;;;;;;;;;;3.40;92.30;;;;;;5085387;28;19998;-60
2022/01/15 03:52:32;;;;;;;;;;;3.40;92.40;;;;;;5085673;28;20281;-60
2022/01/15 03:54:57;;;;;;;;;;;3.40;92.30;;;;;;5103873;28;19923;-61
2022/01/15 03:57:23;;;;;;;;;;;3.40;92.30;;;;;;5103866;28;19915;-60
2022/01/15 03:59:49;;;;;;;;;;;3.40;92.20;;;;;;5084924;28;19916;-60
2022/01/15 04:02:14;;;;;;;;;;;3.40;92.30;;;;;;5070765;28;20083;-60
2022/01/15 04:04:40;;;;;;;;;;;3.40;92.20;;;;;;5086748;28;19919;-60
2022/01/15 04:07:05;;;;;;;;;;;3.40;92.20;;;;;;5104475;28;19926;-60
2022/01/15 04:09:31;;;;;;;;;;;3.40;92.30;;;;;;5067622;28;20352;-60
2022/01/15 04:11:56;;;;;;;;;;;3.30;92.20;;;;;;5103639;28;19997;-61
2022/01/15 04:14:21;;;;;;;;;;;3.40;92.30;;;;;;5104821;28;20019;-60
2022/01/15 04:16:47;;;;;;;;;;;3.30;92.20;;;;;;5070415;28;20429;-61
2022/01/15 04:19:12;;;;;;;;;;;3.30;92.20;;;;;;5086190;28;19908;-61
2022/01/15 04:21:38;;;;;;;;;;;3.40;92.30;;;;;;5085048;28;19912;-61
2022/01/15 04:24:03;;;;;;;;;;;3.30;92.30;;;;;;5067421;28;20295;-61
2022/01/15 04:26:29;;;;;;;;;;;3.30;92.20;;;;;;5086992;28;19918;-63
2022/01/15 04:28:55;;;;;;;;;;;3.30;92.20;;;;;;5103603;28;19912;-61
2022/01/15 04:31:21;;;;;;;;;;;3.30;92.30;;;;;;5085789;28;19911;-61
2022/01/15 04:33:46;;;;;;;;;;;3.30;92.20;;;;;;5104305;28;19923;-61
2022/01/15 04:36:12;;;;;;;;;;;3.30;92.30;;;;;;5086020;28;19913;-60
2022/01/15 04:38:38;;;;;;;;;;;3.30;92.30;;;;;;5086420;28;20084;-60
2022/01/15 04:41:04;;;;;;;;;;;3.30;92.30;;;;;;5085776;28;19912;-60
2022/01/15 04:43:29;;;;;;;;;;;3.40;92.20;;;;;;5087813;28;20394;-61
2022/01/15 04:45:55;;;;;;;;;;;3.20;92.20;;;;;;5070403;28;19926;-61
2022/01/15 04:48:20;;;;;;;;;;;3.20;92.20;;;;;;5069680;28;19916;-61
2022/01/15 04:50:46;;;;;;;;;;;3.30;92.20;;;;;;5081910;28;20377;-61
2022/01/15 04:53:11;;;;;;;;;;;3.20;92.20;;;;;;5069841;28;19934;-60
2022/01/15 04:55:37;;;;;;;;;;;3.40;92.30;;;;;;5085133;28;19920;-60
2022/01/15 04:58:02;;;;;;;;;;;3.20;92.20;;;;;;5087720;28;19908;-61
2022/01/15 05:00:28;;;;;;;;;;;3.20;92.20;;;;;;5067687;28;19911;-60
2022/01/15 05:02:53;;;;;;;;;;;3.50;92.40;;;;;;5086061;28;19932;-60
2022/01/15 05:05:19;;;;;;;;;;;3.20;92.30;;;;;;5085693;28;19919;-60
2022/01/15 05:07:44;;;;;;;;;;;3.20;92.30;;;;;;5085495;28;20352;-61
2022/01/15 05:10:13;;;;;;;;;;;3.20;92.30;;;;;;5085555;28;19935;-61
2022/01/15 05:12:47;;;;;;;;;;;3.10;92.30;;;;;;5070481;28;19916;-60
2022/01/15 05:15:12;;;;;;;;;;;3.20;92.40;;;;;;5085468;28;19955;-60
2022/01/15 05:17:38;;;;;;;;;;;3.20;92.50;;;;;;5067519;28;20020;-60
2022/01/15 05:20:04;;;;;;;;;;;3.20;92.50;;;;;;5085677;28;20360;-60
2022/01/15 05:22:29;;;;;;;;;;;3.20;92.40;;;;;;5102670;28;19919;-60
2022/01/15 05:24:55;;;;;;;;;;;3.20;92.50;;;;;;5086972;28;19911;-61
2022/01/15 05:27:20;;;;;;;;;;;3.20;92.40;;;;;;5070772;28;19922;-61
2022/01/15 05:29:46;;;;;;;;;;;3.10;92.70;;;;;;5100088;28;19915;-60
2022/01/15 05:32:11;;;;;;;;;;;3.10;92.50;;;;;;5068821;28;20496;-60
2022/01/15 05:34:36;;;;;;;;;;;3.10;92.50;;;;;;5068433;28;20152;-60
2022/01/15 05:37:02;;;;;;;;;;;3.10;92.40;;;;;;5087391;28;19918;-60
2022/01/15 05:39:28;;;;;;;;;;;3.10;92.40;;;;;;5101213;28;20324;-60
2022/01/15 05:41:53;;;;;;;;;;;3.10;92.40;;;;;;5084593;28;19922;-61
2022/01/15 05:44:19;;;;;;;;;;;3.10;92.40;;;;;;5068963;28;19951;-61
2022/01/15 05:46:45;;;;;;;;;;;3.20;92.40;;;;;;5084921;28;19919;-60
2022/01/15 05:49:10;;;;;;;;;;;3.10;92.40;;;;;;5086237;28;19919;-60
2022/01/15 05:51:36;;;;;;;;;;;3.10;92.40;;;;;;5068082;28;19912;-60
2022/01/15 05:54:03;;;;;;;;;;;3.10;92.40;;;;;;5086330;28;19916;-61
2022/01/15 05:56:29;;;;;;;;;;;3.10;92.30;;;;;;5084335;28;20471;-60
2022/01/15 05:58:54;;;;;;;;;;;3.00;92.30;;;;;;5084882;28;19912;-60
2022/01/15 06:01:20;;;;;;;;;;;3.00;92.30;;;;;;5083727;28;19997;-60
2022/01/15 06:03:45;;;;;;;;;;;3.10;92.40;;;;;;5086435;28;20637;-61
2022/01/15 06:06:11;;;;;;;;;;;3.00;92.30;;;;;;5068643;28;19928;-60
2022/01/15 06:08:36;;;;;;;;;;;3.00;92.30;;;;;;5068392;28;19993;-61
2022/01/15 06:11:01;;;;;;;;;;;3.00;92.30;;;;;;5084986;28;19920;-60
2022/01/15 06:13:27;;;;;;;;;;;3.00;92.30;;;;;;5102322;28;19915;-61
2022/01/15 06:15:52;;;;;;;;;;;3.00;92.30;;;;;;5102604;28;19915;-61
2022/01/15 06:18:18;;;;;;;;;;;3.00;92.30;;;;;;5086933;28;19912;-61
2022/01/15 06:20:43;;;;;;;;;;;3.00;92.30;;;;;;5065777;28;20459;-61
2022/01/15 06:23:09;;;;;;;;;;;3.00;92.30;;;;;;5100883;28;19920;-60
2022/01/15 06:25:34;;;;;;;;;;;3.00;92.60;;;;;;5101724;28;19916;-60
2022/01/15 06:27:59;;;;;;;;;;;3.00;92.30;;;;;;5087374;28;19973;-60
2022/01/15 06:30:25;;;;;;;;;;;2.90;92.30;;;;;;5086792;28;20491;-60
2022/01/15 06:32:50;;;;;;;;;;;3.00;92.30;;;;;;5091796;28;19911;-60
2022/01/15 06:35:17;;;;;;;;;;;3.00;92.30;;;;;;5070469;28;19915;-60
2022/01/15 06:37:43;;;;;;;;;;;3.00;92.20;;;;;;5105927;28;20535;-60
2022/01/15 06:40:09;;;;;;;;;;;2.90;92.20;;;;;;5072827;28;19916;-60
2022/01/15 06:42:34;;;;;;;;;;;3.00;92.20;;;;;;5070129;28;20573;-60
2022/01/15 06:45:00;;;;;;;;;;;2.90;92.20;;;;;;5072904;28;19927;-60
2022/01/15 06:47:26;;;;;;;;;;;2.90;92.20;;;;;;5087728;28;19912;-60
2022/01/15 06:49:52;;;;;;;;;;;3.10;92.30;;;;;;5086114;28;20003;-60
2022/01/15 06:52:17;;;;;;;;;;;2.90;92.20;;;;;;5086084;28;20011;-61
2022/01/15 06:54:43;;;;;;;;;;;2.90;92.20;;;;;;5068789;28;20382;-61
2022/01/15 06:57:08;;;;;;;;;;;2.90;92.20;;;;;;5085631;28;19945;-61
2022/01/15 06:59:34;;;;;;;;;;;2.90;92.20;;;;;;5065245;28;19947;-60
2022/01/15 07:01:59;;;;;;;;;;;2.90;92.20;;;;;;5102221;28;19946;-60
2022/01/15 07:04:24;;;;;;;;;;;2.90;92.20;;;;;;5087577;28;19908;-61
2022/01/15 07:06:50;;;;;;;;;;;2.80;92.20;;;;;;5087520;28;20306;-60
2022/01/15 07:09:15;;;;;;;;;;;2.90;92.20;;;;;;5088406;28;19916;-61
2022/01/15 07:11:41;;;;;;;;;;;2.80;92.20;;;;;;5104715;28;19923;-60
2022/01/15 07:14:06;;;;;;;;;;;2.80;92.20;;;;;;5086954;28;19918;-61
2022/01/15 07:16:34;;;;;;;;;;;2.80;92.20;;;;;;5068266;28;19978;-60
2022/01/15 07:18:59;;;;;;;;;;;2.80;92.20;;;;;;5088393;28;19916;-60
2022/01/15 07:21:25;;;;;;;;;;;2.80;92.20;;;;;;5083581;28;20010;-61
2022/01/15 07:23:50;;;;;;;;;;;2.80;92.10;;;;;;5085378;28;19977;-60
2022/01/15 07:26:16;;;;;;;;;;;2.90;92.10;;;;;;5067993;28;19920;-61
2022/01/15 07:28:41;;;;;;;;;;;2.80;92.10;;;;;;5068629;28;19928;-60
2022/01/15 07:31:07;;;;;;;;;;;2.80;92.10;;;;;;5070291;28;20588;-61
2022/01/15 07:33:32;;;;;;;;;;;2.80;92.10;;;;;;5071512;28;19958;-61
2022/01/15 07:35:58;;;;;;;;;;;2.80;92.10;;;;;;5083827;28;19916;-60
2022/01/15 07:38:23;;;;;;;;;;;2.80;92.10;;;;;;5087037;28;19912;-61
2022/01/15 07:40:49;;;;;;;;;;;2.80;92.10;;;;;;5067617;28;20373;-61
2022/01/15 07:43:14;;;;;;;;;;;2.80;92.10;;;;;;5070799;28;19912;-60
2022/01/15 07:45:39;;;;;;;;;;;2.80;92.10;;;;;;5070455;28;19994;-60
2022/01/15 07:48:05;;;;;;;;;;;2.80;92.10;;;;;;5071646;28;19969;-61
2022/01/15 07:50:30;;;;;;;;;;;2.80;92.10;;;;;;5068396;28;20389;-60
2022/01/15 07:52:56;;;;;;;;;;;2.80;92.20;;;;;;5102949;28;19974;-60
2022/01/15 07:55:22;;;;;;;;;;;2.80;92.10;;;;;;5085470;28;19910;-60
2022/01/15 07:57:47;;;;;;;;;;;2.80;92.10;;;;;;5087074;28;20420;-61
2022/01/15 08:00:13;;;;;;;;;;;2.70;92.00;;;;;;5087773;28;20519;-60
2022/01/15 08:02:39;;;;;;;;;;;2.80;92.10;;;;;;5071435;28;19919;-61
2022/01/15 08:05:05;;;;;;;;;;;2.80;92.10;;;;;;5088437;28;19912;-60
2022/01/15 08:07:30;;;;;;;;;;;2.80;92.10;;;;;;5086414;28;19916;-61
2022/01/15 08:09:56;;;;;;;;;;;2.70;92.10;;;;;;5086426;28;20383;-60
2022/01/15 08:12:22;;;;;;;;;;;2.70;92.10;;;;;;5071262;28;20252;-60
2022/01/15 08:14:49;;;;;;;;;;;2.70;92.10;;;;;;5104902;27;19919;-60
2022/01/15 08:17:14;;;;;;;;;;;2.70;92.20;;;;;;5087925;28;20382;-60
2022/01/15 08:19:40;;;;;;;;;;;2.80;92.10;;;;;;5103916;28;20014;-60
2022/01/15 08:22:05;;;;;;;;;;;2.70;92.00;;;;;;5102956;28;20495;-60
2022/01/15 08:24:31;;;;;;;;;;;2.80;92.00;;;;;;5103177;28;19912;-60
2022/01/15 08:26:56;;;;;;;;;;;2.70;92.10;;;;;;5069260;28;19947;-60
2022/01/15 08:29:22;;;;;;;;;;;2.70;92.10;;;;;;5086537;28;19945;-61
2022/01/15 08:31:47;;;;;;;;;;;2.70;92.20;;;;;;5068134;28;19927;-60
2022/01/15 08:34:13;;;;;;;;;;;2.70;92.10;;;;;;5068715;28;19959;-61
2022/01/15 08:36:39;;;;;;;;;;;2.70;92.10;;;;;;5067136;28;19962;-61
2022/01/15 08:39:04;;;;;;;;;;;2.70;92.10;;;;;;5086916;28;19908;-61
2022/01/15 08:41:30;;;;;;;;;;;2.70;92.10;;;;;;5082449;28;19958;-60
2022/01/15 08:43:55;;;;;;;;;;;2.70;92.20;;;;;;5066350;28;20007;-60
2022/01/15 08:46:21;;;;;;;;;;;2.70;92.20;;;;;;5083386;28;19962;-60
2022/01/15 08:48:46;;;;;;;;;;;2.70;92.20;;;;;;5083964;28;19923;-61
2022/01/15 08:51:12;;;;;;;;;;;2.70;92.20;;;;;;5085316;28;19915;-61
2022/01/15 08:53:37;;;;;;;;;;;2.70;92.20;;;;;;5067470;28;19919;-61
2022/01/15 08:56:03;;;;;;;;;;;2.80;92.20;;;;;;5104256;28;19911;-61
2022/01/15 08:58:29;;;;;;;;;;;2.70;92.20;;;;;;5084947;28;20569;-61
2022/01/15 09:00:55;;;;;;;;;;;2.90;92.30;;;;;;5067539;28;20002;-60
2022/01/15 09:03:21;;;;;;;;;;;2.70;92.30;;;;;;5086092;28;19923;-60
2022/01/15 09:05:47;;;;;;;;;;;2.70;92.20;;;;;;5069390;28;19919;-60
2022/01/15 09:08:12;;;;;;;;;;;2.70;92.30;;;;;;5087005;28;19912;-60
2022/01/15 09:10:41;;;;;;;;;;;2.80;92.30;;;;;;5066635;28;19920;-61
2022/01/15 09:13:10;;;;;;;;;;;2.70;92.30;;;;;;5098574;28;19920;-60
2022/01/15 09:15:35;;;;;;;;;;;2.80;92.20;;;;;;5067055;28;19920;-60
2022/01/15 09:18:01;;;;;;;;;;;2.80;92.30;;;;;;5098804;28;19934;-60
2022/01/15 09:20:26;;;;;;;;;;;2.80;92.30;;;;;;5084839;28;19912;-61
2022/01/15 09:22:52;;;;;;;;;;;2.80;92.40;;;;;;5085871;28;19916;-60
2022/01/15 09:25:17;;;;;;;;;;;2.80;92.40;;;;;;5066853;28;20239;-60
2022/01/15 09:30:27;;;;;;;;;;;2.80;92.50;;;;;;5085842;28;20111;-60
2022/01/15 09:32:53;;;;;;;;;;;2.80;92.50;;;;;;5086163;28;19911;-60
2022/01/15 09:35:22;;;;;;;;;;;2.90;92.50;;;;;;5101643;28;19912;-60
2022/01/15 09:37:49;;;;;;;;;;;2.90;92.50;;;;;;5066133;28;20327;-61
2022/01/15 09:40:14;;;;;;;;;;;2.90;92.60;;;;;;5084344;28;19916;-61
2022/01/15 09:42:40;;;;;;;;;;;2.90;92.70;;;;;;5067975;28;20725;-61
2022/01/15 09:45:06;;;;;;;;;;;2.90;92.60;;;;;;5100922;27;19916;-61
2022/01/15 09:47:32;;;;;;;;;;;3.00;92.80;;;;;;5082750;28;20800;-61
2022/01/15 09:49:57;;;;;;;;;;;3.10;92.80;;;;;;5099174;28;19961;-61
2022/01/15 09:52:23;;;;;;;;;;;3.00;93.00;;;;;;5083783;27;19919;-61
2022/01/15 09:54:48;;;;;;;;;;;3.00;93.00;;;;;;5101822;27;20383;-60
2022/01/15 09:57:13;;;;;;;;;;;3.00;92.90;;;;;;5069661;28;19920;-62
2022/01/15 09:59:39;;;;;;;;;;;3.00;92.90;;;;;;5065106;28;20428;-61
2022/01/15 10:02:05;;;;;;;;;;;3.00;92.90;;;;;;5087284;28;19959;-60
2022/01/15 10:04:32;;;;;;;;;;;3.10;93.00;;;;;;5101794;27;19988;-60
2022/01/15 10:07:15;;;;;;;;;;;3.20;93.10;;;;;;5083073;28;20021;-60
2022/01/15 10:09:41;;;;;;;;;;;3.10;93.00;;;;;;5086265;28;20410;-61
2022/01/15 10:12:07;;;;;;;;;;;3.40;93.20;;;;;;5083641;28;19916;-60
2022/01/15 10:14:34;;;;;;;;;;;3.10;93.20;;;;;;5066156;28;20517;-61
2022/01/15 10:17:00;;;;;;;;;;;3.10;93.20;;;;;;5067243;28;19915;-61
2022/01/15 10:19:25;;;;;;;;;;;3.20;93.40;;;;;;5082553;28;19926;-60
2022/01/15 10:22:07;;;;;;;;;;;3.20;93.50;;;;;;5104054;28;20007;-61
2022/01/15 10:24:32;;;;;;;;;;;3.30;93.50;;;;;;5086655;28;19924;-61
2022/01/15 10:27:17;;;;;;;;;;;3.40;93.60;;;;;;5068119;28;20321;-61
2022/01/15 10:29:47;;;;;;;;;;;3.20;93.50;;;;;;5097547;28;19931;-61
2022/01/15 10:32:13;;;;;;;;;;;3.30;93.70;;;;;;5068241;28;19935;-60
2022/01/15 10:34:39;;;;;;;;;;;3.30;93.70;;;;;;5100118;28;19918;-61
2022/01/15 10:37:07;;;;;;;;;;;3.30;93.70;;;;;;5068805;28;20407;-61
2022/01/15 10:39:33;;;;;;;;;;;3.30;93.70;;;;;;5084002;28;19916;-60
2022/01/15 10:41:58;;;;;;;;;;;3.30;93.70;;;;;;5100374;28;19932;-61
2022/01/15 10:44:27;;;;;;;;;;;3.70;93.80;;;;;;5082347;28;19924;-61
2022/01/15 10:46:52;;;;;;;;;;;3.40;93.80;;;;;;5100755;28;19983;-61
2022/01/15 10:49:21;;;;;;;;;;;3.40;93.80;;;;;;5065855;28;20428;-61
2022/01/15 10:52:02;;;;;;;;;;;3.40;93.70;;;;;;5066185;28;19924;-63
2022/01/15 10:54:28;;;;;;;;;;;3.40;93.70;;;;;;5081719;28;19962;-61
2022/01/15 10:57:09;;;;;;;;;;;3.40;93.80;;;;;;5082150;28;19959;-61
2022/01/15 10:59:35;;;;;;;;;;;3.50;93.80;;;;;;5082306;28;19987;-61
2022/01/15 11:02:18;;;;;;;;;;;3.40;93.80;;;;;;5067598;28;19919;-61
2022/01/15 11:04:44;;;;;;;;;;;3.50;93.90;;;;;;5067151;28;19912;-61
2022/01/15 11:07:10;;;;;;;;;;;3.50;93.90;;;;;;5067356;28;20271;-60
2022/01/15 11:09:36;;;;;;;;;;;3.60;94.00;;;;;;5062619;28;19950;-61
2022/01/15 11:12:01;;;;;;;;;;;3.60;94.00;;;;;;5098875;28;20551;-61
2022/01/15 11:14:27;;;;;;;;;;;3.60;94.00;;;;;;5100473;28;19965;-61
2022/01/15 11:16:54;;;;;;;;;;;3.60;94.00;;;;;;5085858;28;20370;-60
2022/01/15 11:19:20;;;;;;;;;;;3.60;94.00;;;;;;5069528;28;19915;-61
2022/01/15 11:21:46;;;;;;;;;;;3.60;94.00;;;;;;5087029;28;19930;-61
2022/01/15 11:24:11;;;;;;;;;;;3.70;94.00;;;;;;5087030;28;19926;-61
2022/01/15 11:26:37;;;;;;;;;;;3.70;94.10;;;;;;5072416;28;19907;-61
2022/01/15 11:29:03;;;;;;;;;;;3.70;94.00;;;;;;5069691;28;19924;-61
2022/01/15 11:31:29;;;;;;;;;;;3.70;94.00;;;;;;5086356;28;19927;-61
2022/01/15 11:33:55;;;;;;;;;;;3.70;94.00;;;;;;5087239;28;20018;-61
2022/01/15 11:36:36;;;;;;;;;;;3.70;94.00;;;;;;5084961;28;19915;-61
2022/01/15 11:39:08;;;;;;;;;;;3.80;94.00;;;;;;5085277;28;20064;-61
2022/01/15 11:41:35;;;;;;;;;;;3.80;94.00;;;;;;5070401;28;20389;-60
2022/01/15 11:44:01;;;;;;;;;;;3.80;94.00;;;;;;5086538;28;19919;-61
2022/01/15 11:46:27;;;;;;;;;;;3.80;94.00;;;;;;5086926;28;19974;-61
2022/01/15 11:49:13;;;;;;;;;;;3.80;94.00;;;;;;5083370;28;19938;-60
2022/01/15 11:51:38;;;;;;;;;;;3.80;93.90;;;;;;5087646;28;19916;-63
2022/01/15 11:54:09;;;;;;;;;;;3.80;93.80;;;;;;5071851;28;19908;-61
2022/01/15 11:56:39;;;;;;;;;;;3.80;93.80;;;;;;5086045;28;20010;-61
2022/01/15 11:59:23;;;;;;;;;;;3.90;93.80;;;;;;5087306;28;20041;-61
2022/01/15 12:01:49;;;;;;;;;;;3.90;93.90;;;;;;5076533;28;19934;-61
2022/01/15 12:04:34;;;;;;;;;;;3.90;93.90;;;;;;5046327;28;19913;-61
2022/01/15 12:07:00;;;;;;;;;;;3.90;93.90;;;;;;5064723;28;20291;-61
2022/01/15 12:09:35;;;;;;;;;;;3.90;94.00;;;;;;5063103;28;19916;-61
2022/01/15 12:12:01;;;;;;;;;;;3.90;94.00;;;;;;5064900;28;19909;-60
2022/01/15 12:14:47;;;;;;;;;;;3.90;94.00;;;;;;5061959;28;19994;-61
2022/01/15 12:17:22;;;;;;;;;;;3.90;94.10;;;;;;5054683;28;19969;-61
2022/01/15 12:19:47;;;;;;;;;;;3.90;94.00;;;;;;5063094;28;19925;-61
2022/01/15 12:22:32;;;;;;;;;;;4.00;94.10;;;;;;5063862;28;19982;-61
2022/01/15 12:24:58;;;;;;;;;;;4.00;94.10;;;;;;5047116;28;20394;-61
2022/01/15 12:27:25;;;;;;;;;;;4.00;94.10;;;;;;5062814;28;19909;-61
2022/01/15 12:29:56;;;;;;;;;;;4.00;94.00;;;;;;5045872;28;19919;-61
2022/01/15 12:32:31;;;;;;;;;;;4.10;94.00;;;;;;5047313;28;20323;-61
2022/01/15 12:34:57;;;;;;;;;;;4.10;94.10;;;;;;5047936;28;20392;-61
2022/01/15 12:37:22;;;;;;;;;;;4.10;94.10;;;;;;5080013;28;19944;-61
2022/01/15 12:39:49;;;;;;;;;;;4.10;94.10;;;;;;5061376;28;20401;-60
2022/01/15 12:42:17;;;;;;;;;;;4.20;94.00;;;;;;5062081;28;19920;-61
2022/01/15 12:44:46;;;;;;;;;;;4.20;94.00;;;;;;5046893;28;20301;-61
2022/01/15 12:47:12;;;;;;;;;;;4.20;93.90;;;;;;5062860;28;20358;-60
2022/01/15 12:49:38;;;;;;;;;;;4.20;93.80;;;;;;5046499;28;19913;-61
2022/01/15 12:52:11;;;;;;;;;;;4.20;93.80;;;;;;5046909;28;19962;-60
2022/01/15 12:54:36;;;;;;;;;;;4.20;93.80;;;;;;5060586;28;19971;-61
2022/01/15 12:57:02;;;;;;;;;;;4.30;93.90;;;;;;5028924;28;19923;-60
2022/01/15 12:59:27;;;;;;;;;;;4.30;94.00;;;;;;5062441;28;19912;-61
2022/01/15 13:01:53;;;;;;;;;;;4.20;94.00;;;;;;5061923;28;20350;-61
2022/01/15 13:04:19;;;;;;;;;;;4.30;93.90;;;;;;5070565;28;19911;-60
2022/01/15 13:06:49;;;;;;;;;;;4.30;93.90;;;;;;5100838;28;20058;-60
2022/01/15 13:09:15;;;;;;;;;;;4.30;93.90;;;;;;5081091;28;20498;-60
2022/01/15 13:11:48;;;;;;;;;;;4.30;93.90;;;;;;5084153;28;19916;-61
2022/01/15 13:14:13;;;;;;;;;;;4.30;94.00;;;;;;5086366;28;19919;-61
2022/01/15 13:16:39;;;;;;;;;;;4.40;94.00;;;;;;5066799;28;19970;-61
2022/01/15 13:19:06;;;;;;;;;;;4.40;94.10;;;;;;5082745;28;19920;-61
2022/01/15 13:21:35;;;;;;;;;;;4.40;94.10;;;;;;5097884;28;19916;-61
2022/01/15 13:24:03;;;;;;;;;;;4.40;94.00;;;;;;5085223;28;20031;-61
2022/01/15 13:26:33;;;;;;;;;;;4.40;94.00;;;;;;5069536;28;19912;-61
2022/01/15 13:28:59;;;;;;;;;;;4.40;94.00;;;;;;5085654;28;19920;-60
2022/01/15 13:31:35;;;;;;;;;;;4.50;94.00;;;;;;5084866;28;19908;-61
2022/01/15 13:34:07;;;;;;;;;;;4.50;94.00;;;;;;5100214;28;19908;-61
2022/01/15 13:36:33;;;;;;;;;;;4.50;94.00;;;;;;5085063;28;20449;-61
2022/01/15 13:38:58;;;;;;;;;;;4.50;94.10;;;;;;5084518;28;20034;-61
2022/01/15 13:41:25;;;;;;;;;;;4.50;94.10;;;;;;5101847;28;19939;-60
2022/01/15 13:43:54;;;;;;;;;;;4.50;94.10;;;;;;5068237;28;19934;-61
2022/01/15 13:46:20;;;;;;;;;;;4.60;94.10;;;;;;5084390;28;19907;-60
2022/01/15 13:48:53;;;;;;;;;;;4.60;94.40;;;;;;5083779;28;19923;-61
2022/01/15 13:54:06;;;;;;;;;;;4.50;94.10;;;;;;5102185;28;20112;-60
2022/01/15 13:56:31;;;;;;;;;;;4.60;94.10;;;;;;5085162;28;20436;-61
2022/01/15 13:58:58;;;;;;;;;;;4.60;94.10;;;;;;5066730;28;19920;-61
2022/01/15 14:01:25;;;;;;;;;;;4.60;94.00;;;;;;5067300;28;19916;-60
2022/01/15 14:03:50;;;;;;;;;;;4.60;94.00;;;;;;5068092;28;20097;-61
2022/01/15 14:06:16;;;;;;;;;;;4.60;94.00;;;;;;5102882;28;20007;-61
2022/01/15 14:08:41;;;;;;;;;;;4.60;94.00;;;;;;5085279;28;19915;-61
2022/01/15 14:11:14;;;;;;;;;;;4.60;94.00;;;;;;5081220;28;20403;-61
2022/01/15 14:13:39;;;;;;;;;;;4.60;93.90;;;;;;5083111;28;19930;-61
2022/01/15 14:16:17;;;;;;;;;;;4.60;94.00;;;;;;5067150;28;20371;-61
2022/01/15 14:18:46;;;;;;;;;;;4.60;94.30;;;;;;5081643;28;19942;-61
2022/01/15 14:21:28;;;;;;;;;;;4.70;94.00;;;;;;5082796;28;19939;-61
2022/01/15 14:23:55;;;;;;;;;;;4.70;94.00;;;;;;5078596;28;19922;-61
2022/01/15 14:26:23;;;;;;;;;;;4.70;94.10;;;;;;5077368;28;19924;-61
2022/01/15 14:28:48;;;;;;;;;;;4.70;94.10;;;;;;5085239;28;19926;-61
2022/01/15 14:31:14;;;;;;;;;;;4.70;94.10;;;;;;5083559;28;19991;-61
2022/01/15 14:33:49;;;;;;;;;;;4.70;94.20;;;;;;5082895;28;19937;-60
2022/01/15 14:36:15;;;;;;;;;;;4.80;94.20;;;;;;5066762;28;19924;-61
2022/01/15 14:38:40;;;;;;;;;;;4.80;94.10;;;;;;5100074;28;19990;-61
2022/01/15 14:41:06;;;;;;;;;;;4.80;94.20;;;;;;5086548;28;19959;-61
2022/01/15 14:43:31;;;;;;;;;;;4.80;94.20;;;;;;5085763;28;19938;-61
2022/01/15 14:45:57;;;;;;;;;;;4.80;94.20;;;;;;5102158;28;19926;-61
2022/01/15 14:48:23;;;;;;;;;;;4.80;94.10;;;;;;5066520;28;19916;-61